Terminal Aerodrome Forecast
Issued by NWS

Home | Current Version | Previous Version | Text Only | Print | Product List | Glossary On
Versions: 1 2 3 4 5 6 7 8 9 10 11 12
589
FTUS46 KMTR 242333
TAFSJC
TAF
KSJC 242333Z 2500/2524 30006KT P6SM FEW029 SCT045
     FM250300 29005KT P6SM SKC
     FM250700 VRB03KT P6SM SKC
     FM250900 00000KT P6SM SKC
     FM251300 14003KT P6SM SKC
     FM251900 29005KT P6SM SKC=

USA.gov is the U.S. government's official web portal to all federal, state and local government web resources and services.